sensor_id;sensor_type;location;lat;lon;timestamp;temperature;humidity
20985;DHT22;10651;47.552;7.606;2023-07-09T06:29:29;22.20;99.90
20985;DHT22;10651;47.552;7.606;2023-07-09T06:31:55;22.30;99.90
20985;DHT22;10651;47.552;7.606;2023-07-09T06:34:20;22.30;99.90
20985;DHT22;10651;47.552;7.606;2023-07-09T06:36:46;22.40;99.90
20985;DHT22;10651;47.552;7.606;2023-07-09T06:39:12;22.50;99.90
20985;DHT22;10651;47.552;7.606;2023-07-09T06:48:22;22.70;99.90
20985;DHT22;10651;47.552;7.606;2023-07-09T06:50:49;22.80;99.90
20985;DHT22;10651;47.552;7.606;2023-07-09T06:53:15;22.90;99.90
20985;DHT22;10651;47.552;7.606;2023-07-09T06:55:41;22.90;99.90
20985;DHT22;10651;47.552;7.606;2023-07-09T06:58:07;23.00;99.90
20985;DHT22;10651;47.552;7.606;2023-07-09T07:00:35;23.00;99.90
20985;DHT22;10651;47.552;7.606;2023-07-09T07:03:01;23.10;99.90
20985;DHT22;10651;47.552;7.606;2023-07-09T07:05:27;23.10;99.90
20985;DHT22;10651;47.552;7.606;2023-07-09T07:07:52;23.20;99.90
20985;DHT22;10651;47.552;7.606;2023-07-09T07:10:19;23.30;99.90
20985;DHT22;10651;47.552;7.606;2023-07-09T07:12:47;23.40;99.90
20985;DHT22;10651;47.552;7.606;2023-07-09T07:15:16;23.40;99.90
20985;DHT22;10651;47.552;7.606;2023-07-09T07:17:42;23.50;99.90
20985;DHT22;10651;47.552;7.606;2023-07-09T07:20:10;23.60;99.90
20985;DHT22;10651;47.552;7.606;2023-07-09T07:22:36;23.70;99.90
20985;DHT22;10651;47.552;7.606;2023-07-09T07:25:03;23.70;99.90
20985;DHT22;10651;47.552;7.606;2023-07-09T07:27:29;23.80;99.90
20985;DHT22;10651;47.552;7.606;2023-07-09T07:29:55;23.90;99.90
20985;DHT22;10651;47.552;7.606;2023-07-09T07:32:21;24.00;99.90
20985;DHT22;10651;47.552;7.606;2023-07-09T07:34:47;24.10;99.90
20985;DHT22;10651;47.552;7.606;2023-07-09T07:37:14;24.10;99.90
20985;DHT22;10651;47.552;7.606;2023-07-09T07:39:39;24.20;99.90
20985;DHT22;10651;47.552;7.606;2023-07-09T07:42:06;24.20;99.90
20985;DHT22;10651;47.552;7.606;2023-07-09T07:44:32;24.30;99.90
20985;DHT22;10651;47.552;7.606;2023-07-09T07:46:58;24.40;99.90
20985;DHT22;10651;47.552;7.606;2023-07-09T07:49:23;24.50;99.90
20985;DHT22;10651;47.552;7.606;2023-07-09T07:51:49;24.60;99.90
20985;DHT22;10651;47.552;7.606;2023-07-09T07:54:15;24.70;99.90
20985;DHT22;10651;47.552;7.606;2023-07-09T07:56:41;24.80;99.90
20985;DHT22;10651;47.552;7.606;2023-07-09T07:59:07;24.80;99.90
20985;DHT22;10651;47.552;7.606;2023-07-09T08:01:32;24.90;99.90
20985;DHT22;10651;47.552;7.606;2023-07-09T08:04:01;25.00;99.90
20985;DHT22;10651;47.552;7.606;2023-07-09T08:06:27;25.10;99.90
20985;DHT22;10651;47.552;7.606;2023-07-09T08:08:53;25.10;99.90
20985;DHT22;10651;47.552;7.606;2023-07-09T08:11:19;25.10;99.90
20985;DHT22;10651;47.552;7.606;2023-07-09T08:13:45;25.20;99.90
20985;DHT22;10651;47.552;7.606;2023-07-09T08:16:10;25.20;99.90
20985;DHT22;10651;47.552;7.606;2023-07-09T08:18:38;25.30;99.90
20985;DHT22;10651;47.552;7.606;2023-07-09T08:21:04;25.40;99.90
20985;DHT22;10651;47.552;7.606;2023-07-09T08:23:32;25.50;99.90
20985;DHT22;10651;47.552;7.606;2023-07-09T08:26:04;25.70;99.90
20985;DHT22;10651;47.552;7.606;2023-07-09T08:28:31;25.90;99.90
20985;DHT22;10651;47.552;7.606;2023-07-09T08:30:57;26.10;99.90
20985;DHT22;10651;47.552;7.606;2023-07-09T08:33:24;26.10;99.90
20985;DHT22;10651;47.552;7.606;2023-07-09T08:35:51;26.10;99.90
20985;DHT22;10651;47.552;7.606;2023-07-09T08:38:17;26.00;99.90
20985;DHT22;10651;47.552;7.606;2023-07-09T08:41:32;25.90;99.90
20985;DHT22;10651;47.552;7.606;2023-07-09T08:47:16;26.10;99.90
20985;DHT22;10651;47.552;7.606;2023-07-09T08:49:47;26.20;99.90
20985;DHT22;10651;47.552;7.606;2023-07-09T08:52:25;26.40;99.90
20985;DHT22;10651;47.552;7.606;2023-07-09T08:54:52;26.50;99.90
20985;DHT22;10651;47.552;7.606;2023-07-09T08:57:25;26.40;99.90
20985;DHT22;10651;47.552;7.606;2023-07-09T08:59:57;26.60;99.90
20985;DHT22;10651;47.552;7.606;2023-07-09T09:02:33;26.70;99.90
20985;DHT22;10651;47.552;7.606;2023-07-09T09:05:05;26.70;99.90
20985;DHT22;10651;47.552;7.606;2023-07-09T09:07:41;26.90;99.90
20985;DHT22;10651;47.552;7.606;2023-07-09T09:11:04;27.10;99.90
20985;DHT22;10651;47.552;7.606;2023-07-09T09:16:04;27.30;99.90
20985;DHT22;10651;47.552;7.606;2023-07-09T09:18:52;27.50;99.90
20985;DHT22;10651;47.552;7.606;2023-07-09T09:24:21;27.80;99.90
20985;DHT22;10651;47.552;7.606;2023-07-09T09:26:53;27.70;99.90
20985;DHT22;10651;47.552;7.606;2023-07-09T09:29:31;27.90;99.90
20985;DHT22;10651;47.552;7.606;2023-07-09T09:32:17;28.00;99.90
20985;DHT22;10651;47.552;7.606;2023-07-09T09:34:52;28.30;99.90
20985;DHT22;10651;47.552;7.606;2023-07-09T09:37:28;28.60;99.90
20985;DHT22;10651;47.552;7.606;2023-07-09T09:40:02;28.80;99.90
20985;DHT22;10651;47.552;7.606;2023-07-09T09:42:28;28.90;99.90
20985;DHT22;10651;47.552;7.606;2023-07-09T09:44:55;29.00;99.90
20985;DHT22;10651;47.552;7.606;2023-07-09T09:47:21;29.10;99.90
20985;DHT22;10651;47.552;7.606;2023-07-09T09:50:13;29.20;99.90
20985;DHT22;10651;47.552;7.606;2023-07-09T09:52:40;29.20;99.90
20985;DHT22;10651;47.552;7.606;2023-07-09T09:55:16;29.20;99.90
20985;DHT22;10651;47.552;7.606;2023-07-09T09:57:54;28.90;99.90
20985;DHT22;10651;47.552;7.606;2023-07-09T10:00:25;28.40;99.90
20985;DHT22;10651;47.552;7.606;2023-07-09T10:03:01;28.30;99.90
20985;DHT22;10651;47.552;7.606;2023-07-09T10:05:40;28.00;99.90
20985;DHT22;10651;47.552;7.606;2023-07-09T10:14:30;28.00;99.90
20985;DHT22;10651;47.552;7.606;2023-07-09T10:17:43;27.70;99.90
20985;DHT22;10651;47.552;7.606;2023-07-09T10:20:40;27.70;99.90
20985;DHT22;10651;47.552;7.606;2023-07-09T10:23:30;27.90;99.90
20985;DHT22;10651;47.552;7.606;2023-07-09T10:26:11;27.80;99.90
20985;DHT22;10651;47.552;7.606;2023-07-09T10:29:04;27.80;99.90
20985;DHT22;10651;47.552;7.606;2023-07-09T10:39:53;30.00;99.90
20985;DHT22;10651;47.552;7.606;2023-07-09T10:42:28;30.10;99.90
20985;DHT22;10651;47.552;7.606;2023-07-09T10:44:59;30.40;99.90
20985;DHT22;10651;47.552;7.606;2023-07-09T10:47:43;30.30;99.90
20985;DHT22;10651;47.552;7.606;2023-07-09T10:50:14;30.60;99.90
20985;DHT22;10651;47.552;7.606;2023-07-09T10:52:46;30.60;99.90
20985;DHT22;10651;47.552;7.606;2023-07-09T10:55:49;30.80;99.90
20985;DHT22;10651;47.552;7.606;2023-07-09T11:00:40;31.10;99.90
20985;DHT22;10651;47.552;7.606;2023-07-09T11:05:48;30.90;99.90
20985;DHT22;10651;47.552;7.606;2023-07-09T11:08:32;30.70;99.90
20985;DHT22;10651;47.552;7.606;2023-07-09T11:11:13;30.70;99.90
20985;DHT22;10651;47.552;7.606;2023-07-09T11:13:45;30.70;99.90
20985;DHT22;10651;47.552;7.606;2023-07-09T11:16:16;31.10;99.90
20985;DHT22;10651;47.552;7.606;2023-07-09T11:18:55;30.50;99.90
20985;DHT22;10651;47.552;7.606;2023-07-09T11:21:21;29.60;99.90
20985;DHT22;10651;47.552;7.606;2023-07-09T11:23:50;29.40;99.90
20985;DHT22;10651;47.552;7.606;2023-07-09T11:26:24;29.00;99.90
20985;DHT22;10651;47.552;7.606;2023-07-09T11:29:14;28.80;99.90
20985;DHT22;10651;47.552;7.606;2023-07-09T11:31:42;28.60;99.90
20985;DHT22;10651;47.552;7.606;2023-07-09T11:34:20;29.50;99.90
20985;DHT22;10651;47.552;7.606;2023-07-09T11:42:02;31.00;99.90
20985;DHT22;10651;47.552;7.606;2023-07-09T11:44:32;30.10;99.90
20985;DHT22;10651;47.552;7.606;2023-07-09T11:47:13;29.80;99.90
20985;DHT22;10651;47.552;7.606;2023-07-09T11:50:02;29.60;99.90
20985;DHT22;10651;47.552;7.606;2023-07-09T11:58:02;29.40;99.90
20985;DHT22;10651;47.552;7.606;2023-07-09T12:00:58;29.90;99.90
20985;DHT22;10651;47.552;7.606;2023-07-09T12:06:52;30.20;99.90
20985;DHT22;10651;47.552;7.606;2023-07-09T12:09:30;30.10;99.90
20985;DHT22;10651;47.552;7.606;2023-07-09T12:12:02;30.90;99.90
20985;DHT22;10651;47.552;7.606;2023-07-09T12:14:28;31.50;99.90
20985;DHT22;10651;47.552;7.606;2023-07-09T12:16:54;31.90;99.90
20985;DHT22;10651;47.552;7.606;2023-07-09T12:19:23;32.20;99.90
20985;DHT22;10651;47.552;7.606;2023-07-09T12:21:52;32.30;99.90
20985;DHT22;10651;47.552;7.606;2023-07-09T12:24:30;32.60;99.90
20985;DHT22;10651;47.552;7.606;2023-07-09T12:27:02;32.60;99.90
20985;DHT22;10651;47.552;7.606;2023-07-09T12:29:34;32.80;99.90
20985;DHT22;10651;47.552;7.606;2023-07-09T12:32:11;33.00;99.90
20985;DHT22;10651;47.552;7.606;2023-07-09T12:34:42;32.90;99.90
20985;DHT22;10651;47.552;7.606;2023-07-09T12:37:15;32.90;99.90
20985;DHT22;10651;47.552;7.606;2023-07-09T12:39:41;33.00;99.90
20985;DHT22;10651;47.552;7.606;2023-07-09T12:42:19;33.10;99.90
20985;DHT22;10651;47.552;7.606;2023-07-09T12:44:46;33.20;99.90
20985;DHT22;10651;47.552;7.606;2023-07-09T12:49:44;33.30;99.90
20985;DHT22;10651;47.552;7.606;2023-07-09T12:52:25;33.40;99.90
20985;DHT22;10651;47.552;7.606;2023-07-09T12:55:02;33.40;99.90
20985;DHT22;10651;47.552;7.606;2023-07-09T12:57:29;33.50;99.90
20985;DHT22;10651;47.552;7.606;2023-07-09T12:59:56;33.60;99.90
20985;DHT22;10651;47.552;7.606;2023-07-09T13:02:25;33.70;99.90
20985;DHT22;10651;47.552;7.606;2023-07-09T13:05:01;33.90;99.90
20985;DHT22;10651;47.552;7.606;2023-07-09T13:07:41;33.90;99.90
20985;DHT22;10651;47.552;7.606;2023-07-09T13:10:16;33.80;99.90
20985;DHT22;10651;47.552;7.606;2023-07-09T13:12:46;33.90;99.90
20985;DHT22;10651;47.552;7.606;2023-07-09T13:18:04;34.00;99.90
20985;DHT22;10651;47.552;7.606;2023-07-09T13:20:32;34.00;99.90
20985;DHT22;10651;47.552;7.606;2023-07-09T13:22:58;34.10;99.90
20985;DHT22;10651;47.552;7.606;2023-07-09T13:25:25;34.20;99.90
20985;DHT22;10651;47.552;7.606;2023-07-09T13:27:53;34.50;99.90
20985;DHT22;10651;47.552;7.606;2023-07-09T13:30:20;34.50;99.90
20985;DHT22;10651;47.552;7.606;2023-07-09T13:32:48;34.50;99.90
20985;DHT22;10651;47.552;7.606;2023-07-09T13:35:17;34.50;99.90
20985;DHT22;10651;47.552;7.606;2023-07-09T13:37:45;34.50;99.90
20985;DHT22;10651;47.552;7.606;2023-07-09T13:40:13;34.40;99.90
20985;DHT22;10651;47.552;7.606;2023-07-09T13:42:40;34.30;99.20
20985;DHT22;10651;47.552;7.606;2023-07-09T13:45:23;34.10;99.90
20985;DHT22;10651;47.552;7.606;2023-07-09T13:47:51;34.20;99.60
20985;DHT22;10651;47.552;7.606;2023-07-09T13:50:26;34.30;97.30
20985;DHT22;10651;47.552;7.606;2023-07-09T13:52:52;34.40;99.90
20985;DHT22;10651;47.552;7.606;2023-07-09T13:55:22;34.40;97.50
20985;DHT22;10651;47.552;7.606;2023-07-09T13:57:50;34.50;98.50
20985;DHT22;10651;47.552;7.606;2023-07-09T14:00:16;34.60;97.40
20985;DHT22;10651;47.552;7.606;2023-07-09T14:02:43;34.70;98.90
20985;DHT22;10651;47.552;7.606;2023-07-09T14:05:11;34.70;98.40
20985;DHT22;10651;47.552;7.606;2023-07-09T14:07:39;34.60;99.10
20985;DHT22;10651;47.552;7.606;2023-07-09T14:10:11;34.50;98.40
20985;DHT22;10651;47.552;7.606;2023-07-09T14:12:40;34.00;95.20
20985;DHT22;10651;47.552;7.606;2023-07-09T14:15:16;33.70;97.60
20985;DHT22;10651;47.552;7.606;2023-07-09T14:17:43;33.70;97.10
20985;DHT22;10651;47.552;7.606;2023-07-09T14:20:12;33.50;98.70
20985;DHT22;10651;47.552;7.606;2023-07-09T14:22:40;33.50;96.80
20985;DHT22;10651;47.552;7.606;2023-07-09T14:25:19;33.40;96.50
20985;DHT22;10651;47.552;7.606;2023-07-09T14:27:45;33.40;98.70
20985;DHT22;10651;47.552;7.606;2023-07-09T14:30:16;33.40;99.90
20985;DHT22;10651;47.552;7.606;2023-07-09T14:32:42;33.40;98.30
20985;DHT22;10651;47.552;7.606;2023-07-09T14:35:24;33.60;99.00
20985;DHT22;10651;47.552;7.606;2023-07-09T14:37:52;34.00;99.90
20985;DHT22;10651;47.552;7.606;2023-07-09T14:40:20;34.10;97.40
20985;DHT22;10651;47.552;7.606;2023-07-09T14:42:47;34.30;97.30
20985;DHT22;10651;47.552;7.606;2023-07-09T14:47:43;34.20;95.60
20985;DHT22;10651;47.552;7.606;2023-07-09T14:50:10;34.30;95.70
20985;DHT22;10651;47.552;7.606;2023-07-09T14:52:36;34.40;95.70
20985;DHT22;10651;47.552;7.606;2023-07-09T14:55:05;34.50;95.80
20985;DHT22;10651;47.552;7.606;2023-07-09T14:57:30;34.40;96.50
20985;DHT22;10651;47.552;7.606;2023-07-09T14:59:59;34.40;96.10
20985;DHT22;10651;47.552;7.606;2023-07-09T15:02:32;34.40;94.80
20985;DHT22;10651;47.552;7.606;2023-07-09T15:05:03;34.40;95.20
20985;DHT22;10651;47.552;7.606;2023-07-09T15:07:29;34.50;94.80
20985;DHT22;10651;47.552;7.606;2023-07-09T15:09:57;34.50;95.70
20985;DHT22;10651;47.552;7.606;2023-07-09T15:12:27;34.50;94.60
20985;DHT22;10651;47.552;7.606;2023-07-09T15:17:41;34.70;93.80
20985;DHT22;10651;47.552;7.606;2023-07-09T15:20:24;34.60;92.90
20985;DHT22;10651;47.552;7.606;2023-07-09T15:22:50;34.70;94.30
20985;DHT22;10651;47.552;7.606;2023-07-09T15:25:22;34.80;94.20
20985;DHT22;10651;47.552;7.606;2023-07-09T15:27:49;34.80;94.20
20985;DHT22;10651;47.552;7.606;2023-07-09T15:30:21;34.80;95.60
20985;DHT22;10651;47.552;7.606;2023-07-09T15:32:48;34.90;95.40
20985;DHT22;10651;47.552;7.606;2023-07-09T15:35:16;34.50;94.60
20985;DHT22;10651;47.552;7.606;2023-07-09T15:37:43;34.10;94.90
20985;DHT22;10651;47.552;7.606;2023-07-09T15:42:42;33.90;94.30
20985;DHT22;10651;47.552;7.606;2023-07-09T15:45:11;34.00;95.80
20985;DHT22;10651;47.552;7.606;2023-07-09T15:47:38;33.70;94.70
20985;DHT22;10651;47.552;7.606;2023-07-09T15:50:17;33.80;94.60
20985;DHT22;10651;47.552;7.606;2023-07-09T15:52:46;34.00;93.60
20985;DHT22;10651;47.552;7.606;2023-07-09T15:55:18;34.20;95.70
20985;DHT22;10651;47.552;7.606;2023-07-09T15:57:48;34.10;95.60
20985;DHT22;10651;47.552;7.606;2023-07-09T16:00:20;34.00;95.60
20985;DHT22;10651;47.552;7.606;2023-07-09T16:02:48;34.00;94.30
20985;DHT22;10651;47.552;7.606;2023-07-09T16:05:18;33.80;94.00
20985;DHT22;10651;47.552;7.606;2023-07-09T16:07:44;33.70;96.20
20985;DHT22;10651;47.552;7.606;2023-07-09T16:10:10;33.90;94.00
20985;DHT22;10651;47.552;7.606;2023-07-09T16:12:36;34.10;96.10
20985;DHT22;10651;47.552;7.606;2023-07-09T16:15:03;34.20;93.90
20985;DHT22;10651;47.552;7.606;2023-07-09T16:17:29;34.40;95.40
20985;DHT22;10651;47.552;7.606;2023-07-09T16:19:55;34.40;93.30
20985;DHT22;10651;47.552;7.606;2023-07-09T16:22:20;34.50;95.50
20985;DHT22;10651;47.552;7.606;2023-07-09T16:24:48;34.50;94.00
20985;DHT22;10651;47.552;7.606;2023-07-09T16:27:16;34.30;92.10
20985;DHT22;10651;47.552;7.606;2023-07-09T16:29:42;34.20;91.60
20985;DHT22;10651;47.552;7.606;2023-07-09T16:32:08;34.00;91.30
20985;DHT22;10651;47.552;7.606;2023-07-09T16:34:35;34.00;91.80
20985;DHT22;10651;47.552;7.606;2023-07-09T16:37:06;34.10;92.30
20985;DHT22;10651;47.552;7.606;2023-07-09T16:39:50;34.10;92.80
20985;DHT22;10651;47.552;7.606;2023-07-09T16:42:16;34.10;91.60
20985;DHT22;10651;47.552;7.606;2023-07-09T16:44:42;34.10;93.80
20985;DHT22;10651;47.552;7.606;2023-07-09T16:47:18;34.10;92.90
20985;DHT22;10651;47.552;7.606;2023-07-09T16:49:46;34.00;92.90
20985;DHT22;10651;47.552;7.606;2023-07-09T16:52:18;34.00;92.90
20985;DHT22;10651;47.552;7.606;2023-07-09T16:54:44;33.90;92.70
20985;DHT22;10651;47.552;7.606;2023-07-09T16:57:15;33.80;93.40
20985;DHT22;10651;47.552;7.606;2023-07-09T16:59:42;33.70;92.10
20985;DHT22;10651;47.552;7.606;2023-07-09T17:02:31;33.70;91.60
20985;DHT22;10651;47.552;7.606;2023-07-09T17:04:59;33.60;90.60
20985;DHT22;10651;47.552;7.606;2023-07-09T17:07:25;33.60;90.70
20985;DHT22;10651;47.552;7.606;2023-07-09T17:09:55;33.50;90.20
20985;DHT22;10651;47.552;7.606;2023-07-09T17:12:21;33.40;90.50
20985;DHT22;10651;47.552;7.606;2023-07-09T17:14:50;33.20;90.60
20985;DHT22;10651;47.552;7.606;2023-07-09T17:17:19;32.90;91.50
20985;DHT22;10651;47.552;7.606;2023-07-09T17:19:48;32.70;90.30
20985;DHT22;10651;47.552;7.606;2023-07-09T17:22:32;32.50;92.20
20985;DHT22;10651;47.552;7.606;2023-07-09T17:24:59;32.30;91.40
20985;DHT22;10651;47.552;7.606;2023-07-09T17:27:28;32.20;90.80
20985;DHT22;10651;47.552;7.606;2023-07-09T17:29:54;32.20;90.20
20985;DHT22;10651;47.552;7.606;2023-07-09T17:32:19;32.20;91.60
20985;DHT22;10651;47.552;7.606;2023-07-09T17:34:45;32.10;86.80
20985;DHT22;10651;47.552;7.606;2023-07-09T17:37:13;31.90;91.90
20985;DHT22;10651;47.552;7.606;2023-07-09T17:39:39;31.80;91.10
20985;DHT22;10651;47.552;7.606;2023-07-09T17:42:12;31.80;91.40
20985;DHT22;10651;47.552;7.606;2023-07-09T17:44:38;31.70;92.80
20985;DHT22;10651;47.552;7.606;2023-07-09T17:47:12;31.50;93.00
20985;DHT22;10651;47.552;7.606;2023-07-09T17:49:39;31.40;92.00
20985;DHT22;10651;47.552;7.606;2023-07-09T17:52:07;31.30;92.10
20985;DHT22;10651;47.552;7.606;2023-07-09T17:54:38;31.20;91.70
20985;DHT22;10651;47.552;7.606;2023-07-09T17:57:04;31.20;91.20
20985;DHT22;10651;47.552;7.606;2023-07-09T17:59:33;31.30;98.90
20985;DHT22;10651;47.552;7.606;2023-07-09T18:05:02;30.90;99.90
20985;DHT22;10651;47.552;7.606;2023-07-09T18:07:34;30.00;99.90
20985;DHT22;10651;47.552;7.606;2023-07-09T18:09:59;29.40;99.90
20985;DHT22;10651;47.552;7.606;2023-07-09T18:12:27;29.00;99.90
20985;DHT22;10651;47.552;7.606;2023-07-09T18:14:55;28.90;99.90
20985;DHT22;10651;47.552;7.606;2023-07-09T18:17:33;28.60;99.90
20985;DHT22;10651;47.552;7.606;2023-07-09T18:20:00;28.50;99.90
20985;DHT22;10651;47.552;7.606;2023-07-09T18:22:26;28.30;99.90
20985;DHT22;10651;47.552;7.606;2023-07-09T18:24:57;28.10;99.90
20985;DHT22;10651;47.552;7.606;2023-07-09T18:27:30;28.60;99.90
20985;DHT22;10651;47.552;7.606;2023-07-09T18:29:58;29.10;99.90
20985;DHT22;10651;47.552;7.606;2023-07-09T18:32:25;29.40;99.90
20985;DHT22;10651;47.552;7.606;2023-07-09T18:34:54;29.50;99.90
20985;DHT22;10651;47.552;7.606;2023-07-09T18:37:21;29.60;99.90
20985;DHT22;10651;47.552;7.606;2023-07-09T18:39:48;29.70;99.90
20985;DHT22;10651;47.552;7.606;2023-07-09T18:42:16;29.70;99.90
20985;DHT22;10651;47.552;7.606;2023-07-09T18:44:42;29.70;99.90
20985;DHT22;10651;47.552;7.606;2023-07-09T18:47:16;29.80;99.90
20985;DHT22;10651;47.552;7.606;2023-07-09T18:49:43;29.70;99.90
20985;DHT22;10651;47.552;7.606;2023-07-09T18:52:19;29.60;99.90
20985;DHT22;10651;47.552;7.606;2023-07-09T18:54:49;29.60;99.90
20985;DHT22;10651;47.552;7.606;2023-07-09T18:57:15;29.50;99.90
20985;DHT22;10651;47.552;7.606;2023-07-09T18:59:41;29.00;99.90
20985;DHT22;10651;47.552;7.606;2023-07-09T19:02:20;28.50;99.90
20985;DHT22;10651;47.552;7.606;2023-07-09T19:04:46;28.10;99.90
20985;DHT22;10651;47.552;7.606;2023-07-09T19:07:15;27.90;99.90
20985;DHT22;10651;47.552;7.606;2023-07-09T19:09:41;27.80;99.90
20985;DHT22;10651;47.552;7.606;2023-07-09T19:12:07;27.80;99.90
20985;DHT22;10651;47.552;7.606;2023-07-09T19:14:34;27.70;99.90
20985;DHT22;10651;47.552;7.606;2023-07-09T19:17:03;27.60;99.90
20985;DHT22;10651;47.552;7.606;2023-07-09T19:19:30;27.60;99.90
20985;DHT22;10651;47.552;7.606;2023-07-09T19:21:58;27.90;99.90
20985;DHT22;10651;47.552;7.606;2023-07-09T19:24:30;28.00;99.90
20985;DHT22;10651;47.552;7.606;2023-07-09T19:26:59;28.10;99.90
20985;DHT22;10651;47.552;7.606;2023-07-09T19:29:38;28.10;99.90
20985;DHT22;10651;47.552;7.606;2023-07-09T19:32:17;28.00;99.90
20985;DHT22;10651;47.552;7.606;2023-07-09T19:34:44;27.80;99.90
20985;DHT22;10651;47.552;7.606;2023-07-09T19:37:20;27.60;99.90
20985;DHT22;10651;47.552;7.606;2023-07-09T19:39:47;27.50;99.90
20985;DHT22;10651;47.552;7.606;2023-07-09T19:42:15;27.40;99.90
20985;DHT22;10651;47.552;7.606;2023-07-09T19:44:42;27.40;99.90
20985;DHT22;10651;47.552;7.606;2023-07-09T19:47:32;27.30;99.90
20985;DHT22;10651;47.552;7.606;2023-07-09T19:49:59;27.20;99.90
20985;DHT22;10651;47.552;7.606;2023-07-09T19:52:25;27.20;99.90
20985;DHT22;10651;47.552;7.606;2023-07-09T19:54:50;27.20;99.90
20985;DHT22;10651;47.552;7.606;2023-07-09T19:57:16;27.20;99.90
20985;DHT22;10651;47.552;7.606;2023-07-09T19:59:42;27.10;99.90
20985;DHT22;10651;47.552;7.606;2023-07-09T20:02:28;27.10;99.90
20985;DHT22;10651;47.552;7.606;2023-07-09T20:04:55;27.10;99.90
20985;DHT22;10651;47.552;7.606;2023-07-09T20:07:20;27.10;99.90
20985;DHT22;10651;47.552;7.606;2023-07-09T20:09:46;27.10;99.90
20985;DHT22;10651;47.552;7.606;2023-07-09T20:12:19;27.00;99.90
20985;DHT22;10651;47.552;7.606;2023-07-09T20:14:46;27.00;99.90
20985;DHT22;10651;47.552;7.606;2023-07-09T20:17:13;27.00;99.90
20985;DHT22;10651;47.552;7.606;2023-07-09T20:19:39;27.00;99.90
20985;DHT22;10651;47.552;7.606;2023-07-09T20:22:12;27.00;99.90
20985;DHT22;10651;47.552;7.606;2023-07-09T20:24:38;27.00;99.90
20985;DHT22;10651;47.552;7.606;2023-07-09T20:27:14;27.00;99.90
20985;DHT22;10651;47.552;7.606;2023-07-09T20:29:41;27.00;99.90
20985;DHT22;10651;47.552;7.606;2023-07-09T20:32:17;27.00;99.90
20985;DHT22;10651;47.552;7.606;2023-07-09T20:34:44;27.00;99.90
20985;DHT22;10651;47.552;7.606;2023-07-09T20:37:11;27.00;99.90
20985;DHT22;10651;47.552;7.606;2023-07-09T20:39:38;27.00;99.90
20985;DHT22;10651;47.552;7.606;2023-07-09T20:42:04;26.90;99.90
20985;DHT22;10651;47.552;7.606;2023-07-09T20:44:36;26.90;99.90
20985;DHT22;10651;47.552;7.606;2023-07-09T20:47:04;26.90;99.90
20985;DHT22;10651;47.552;7.606;2023-07-09T20:49:37;26.90;99.90
20985;DHT22;10651;47.552;7.606;2023-07-09T20:52:03;26.90;99.90
20985;DHT22;10651;47.552;7.606;2023-07-09T20:54:31;26.90;99.90
20985;DHT22;10651;47.552;7.606;2023-07-09T20:56:58;26.80;99.90
20985;DHT22;10651;47.552;7.606;2023-07-09T20:59:26;26.80;99.90
20985;DHT22;10651;47.552;7.606;2023-07-09T21:01:53;26.80;99.90
20985;DHT22;10651;47.552;7.606;2023-07-09T21:04:20;26.70;99.90
20985;DHT22;10651;47.552;7.606;2023-07-09T21:06:50;26.80;99.90
20985;DHT22;10651;47.552;7.606;2023-07-09T21:09:28;26.70;99.90
20985;DHT22;10651;47.552;7.606;2023-07-09T21:11:56;26.70;99.90
20985;DHT22;10651;47.552;7.606;2023-07-09T21:14:22;26.70;99.90
20985;DHT22;10651;47.552;7.606;2023-07-09T21:16:48;26.60;99.90
20985;DHT22;10651;47.552;7.606;2023-07-09T21:19:22;26.60;99.90
20985;DHT22;10651;47.552;7.606;2023-07-09T21:21:49;26.60;99.90
20985;DHT22;10651;47.552;7.606;2023-07-09T21:24:29;26.60;99.90
20985;DHT22;10651;47.552;7.606;2023-07-09T21:26:56;26.60;99.90
